createdAt,value
2022-09-15T00:01:52.151Z,68.15
2022-09-15T00:04:18.555Z,68.16
2022-09-15T00:06:46.246Z,71.55
2022-09-15T00:09:12.594Z,69.97
2022-09-15T00:11:39.040Z,69.02
2022-09-15T00:14:06.874Z,68.79
2022-09-15T00:16:34.205Z,68.04
2022-09-15T00:19:01.095Z,68.58
2022-09-15T00:21:29.932Z,69.66
2022-09-15T00:23:58.974Z,68.33
2022-09-15T00:26:27.320Z,69.49
2022-09-15T00:28:54.526Z,68.56
2022-09-15T00:31:23.556Z,69.33
2022-09-15T00:33:51.930Z,70.12
2022-09-15T00:36:19.876Z,69.22
2022-09-15T00:38:46.865Z,69.06
2022-09-15T00:41:17.392Z,68.73
2022-09-15T00:43:51.089Z,70.19
2022-09-15T00:46:19.673Z,69.20
2022-09-15T00:48:50.840Z,67.92
2022-09-15T00:51:22.558Z,68.03
2022-09-15T00:53:49.603Z,68.06
2022-09-15T00:56:18.311Z,68.07
2022-09-15T00:58:48.885Z,69.82
2022-09-15T01:01:16.487Z,68.76
2022-09-15T01:03:43.542Z,69.61
2022-09-15T01:06:14.052Z,69.08
2022-09-15T01:08:44.344Z,70.40
2022-09-15T01:11:10.903Z,69.11
2022-09-15T01:13:38.560Z,68.62
2022-09-15T01:16:14.656Z,70.82
2022-09-15T01:18:51.277Z,70.62
2022-09-15T01:21:27.878Z,71.95
2022-09-15T01:24:32.558Z,71.72
2022-09-15T01:27:30.550Z,70.00
2022-09-15T01:30:07.597Z,69.80
2022-09-15T01:32:43.993Z,68.87
2022-09-15T01:35:21.884Z,69.94
2022-09-15T01:37:54.540Z,70.56
2022-09-15T01:40:24.617Z,70.04
2022-09-15T01:42:52.456Z,70.84
2022-09-15T01:45:25.237Z,69.38
2022-09-15T01:47:54.335Z,70.41
2022-09-15T01:50:23.400Z,70.09
2022-09-15T01:52:54.410Z,70.35
2022-09-15T01:55:26.493Z,70.15
2022-09-15T01:57:52.916Z,70.71
2022-09-15T02:00:21.179Z,70.81
2022-09-15T02:02:52.028Z,69.80
2022-09-15T02:05:23.008Z,70.58
2022-09-15T02:07:53.150Z,70.02
2022-09-15T02:10:25.961Z,69.80
2022-09-15T02:12:59.079Z,70.87
2022-09-15T02:15:31.665Z,70.69
2022-09-15T02:17:58.088Z,71.69
2022-09-15T02:20:30.031Z,70.29
2022-09-15T02:23:01.544Z,70.46
2022-09-15T02:25:33.393Z,70.56
2022-09-15T02:28:04.211Z,70.82
2022-09-15T02:30:33.016Z,71.14
2022-09-15T02:33:04.146Z,71.44
2022-09-15T02:35:32.674Z,71.42
2022-09-15T02:37:59.986Z,71.14
2022-09-15T02:40:28.426Z,70.51
2022-09-15T02:42:56.848Z,70.50
2022-09-15T02:45:24.574Z,70.62
2022-09-15T02:47:52.621Z,70.38
2022-09-15T02:50:19.978Z,70.02
2022-09-15T02:52:46.598Z,70.85
2022-09-15T02:55:12.970Z,70.12
2022-09-15T02:57:39.321Z,69.34
2022-09-15T03:00:07.167Z,69.49
2022-09-15T03:02:33.628Z,69.01
2022-09-15T03:05:01.321Z,69.54
2022-09-15T03:07:27.731Z,70.62
2022-09-15T03:09:54.148Z,70.53
2022-09-15T03:12:20.573Z,69.49
2022-09-15T03:14:46.933Z,69.22
2022-09-15T03:17:13.363Z,68.92
2022-09-15T03:19:39.719Z,68.60
2022-09-15T03:22:07.449Z,69.21
2022-09-15T03:24:33.831Z,69.67
2022-09-15T03:27:00.277Z,67.83
2022-09-15T03:29:26.949Z,69.02
2022-09-15T03:31:53.360Z,69.68
2022-09-15T03:34:19.811Z,68.68
2022-09-15T03:36:46.186Z,68.19
2022-09-15T03:39:13.972Z,68.36
2022-09-15T03:41:40.789Z,69.43
2022-09-15T03:44:07.142Z,68.83
2022-09-15T03:46:33.676Z,68.78
2022-09-15T03:49:00.008Z,69.67
2022-09-15T03:51:26.360Z,69.50
2022-09-15T03:53:52.838Z,70.57
2022-09-15T03:56:23.735Z,71.54
2022-09-15T03:58:50.803Z,69.05
2022-09-15T04:01:17.542Z,68.38
2022-09-15T04:03:50.122Z,67.90
2022-09-15T04:06:17.787Z,67.43
2022-09-15T04:08:44.577Z,67.60
2022-09-15T04:11:12.330Z,68.01
2022-09-15T04:13:41.404Z,68.33
2022-09-15T04:16:09.964Z,68.44
2022-09-15T04:18:36.742Z,69.69
2022-09-15T04:21:05.649Z,68.25
2022-09-15T04:23:32.924Z,67.67
2022-09-15T04:26:01.167Z,69.04
2022-09-15T04:28:29.186Z,68.54
2022-09-15T04:31:05.337Z,68.00
2022-09-15T04:33:32.156Z,66.99
2022-09-15T04:35:59.564Z,69.58
2022-09-15T04:38:25.976Z,68.21
2022-09-15T04:40:52.384Z,68.36
2022-09-15T04:43:18.737Z,67.74
2022-09-15T04:45:45.106Z,67.82
2022-09-15T04:48:12.843Z,70.27
2022-09-15T04:50:39.184Z,68.30
2022-09-15T04:53:05.534Z,67.81
2022-09-15T04:55:32.415Z,69.33
2022-09-15T04:57:58.817Z,67.60
2022-09-15T05:00:25.414Z,68.03
2022-09-15T05:02:51.796Z,68.75
2022-09-15T05:05:19.655Z,68.89
2022-09-15T05:07:47.218Z,67.86
2022-09-15T05:10:14.041Z,68.30
2022-09-15T05:12:40.387Z,68.87
2022-09-15T05:15:08.061Z,68.16
2022-09-15T05:17:34.808Z,69.11
2022-09-15T05:20:02.171Z,67.59
2022-09-15T05:22:29.826Z,66.72
2022-09-15T05:24:56.294Z,66.59
2022-09-15T05:27:22.845Z,66.64
2022-09-15T05:29:49.205Z,67.33
2022-09-15T05:32:15.554Z,67.46
2022-09-15T05:34:41.931Z,65.97
2022-09-15T05:37:08.272Z,67.30
2022-09-15T05:39:35.975Z,66.46
2022-09-15T05:42:02.322Z,67.06
2022-09-15T05:44:28.681Z,66.75
2022-09-15T05:46:55.196Z,67.28
2022-09-15T05:49:21.548Z,66.62
2022-09-15T05:51:47.878Z,67.04
2022-09-15T05:54:14.257Z,66.84
2022-09-15T05:56:41.918Z,67.18
2022-09-15T05:59:08.411Z,68.32
2022-09-15T06:01:34.806Z,66.49
2022-09-15T06:04:01.484Z,65.53
2022-09-15T06:06:27.892Z,68.15
2022-09-15T06:08:58.445Z,66.87
2022-09-15T06:11:27.742Z,66.58
2022-09-15T06:13:58.407Z,65.64
2022-09-15T06:16:25.027Z,68.01
2022-09-15T06:18:53.110Z,64.98
2022-09-15T06:21:22.345Z,64.73
2022-09-15T06:23:52.918Z,66.49
2022-09-15T06:26:19.407Z,64.76
2022-09-15T06:28:48.791Z,64.28
2022-09-15T06:31:17.035Z,63.82
2022-09-15T06:33:44.976Z,63.90
2022-09-15T06:36:11.825Z,64.72
2022-09-15T06:38:38.423Z,63.15
2022-09-15T06:41:05.850Z,64.39
2022-09-15T06:43:33.410Z,66.77
2022-09-15T06:46:04.918Z,65.76
2022-09-15T06:48:32.648Z,67.97
2022-09-15T06:50:59.758Z,66.13
2022-09-15T06:53:28.691Z,65.03
2022-09-15T06:55:55.228Z,65.78
2022-09-15T06:58:21.715Z,65.18
2022-09-15T07:00:48.075Z,64.74
2022-09-15T07:03:14.625Z,64.74
2022-09-15T07:05:43.385Z,66.06
2022-09-15T07:08:09.728Z,66.42
2022-09-15T07:10:36.261Z,66.57
2022-09-15T07:13:02.631Z,65.77
2022-09-15T07:15:29.169Z,64.46
2022-09-15T07:17:55.512Z,65.40
2022-09-15T07:20:21.944Z,64.93
2022-09-15T07:22:49.671Z,65.31
2022-09-15T07:25:16.231Z,65.32
2022-09-15T07:27:42.580Z,64.57
2022-09-15T07:30:09.974Z,63.58
2022-09-15T07:32:36.332Z,63.14
2022-09-15T07:35:03.891Z,64.06
2022-09-15T07:37:30.223Z,65.55
2022-09-15T07:39:57.955Z,63.61
2022-09-15T07:42:24.366Z,64.75
2022-09-15T07:44:50.800Z,64.03
2022-09-15T07:47:17.262Z,63.07
2022-09-15T07:49:43.740Z,67.14
2022-09-15T07:52:10.078Z,65.00
2022-09-15T07:54:36.468Z,63.46
2022-09-15T07:57:04.469Z,62.27
2022-09-15T07:59:30.832Z,63.92
2022-09-15T08:01:57.251Z,63.48
2022-09-15T08:04:23.815Z,64.83
2022-09-15T08:06:50.201Z,62.93
2022-09-15T08:09:16.535Z,63.45
2022-09-15T08:11:43.356Z,62.19
2022-09-15T08:14:11.042Z,63.24
2022-09-15T08:16:38.413Z,62.54
2022-09-15T08:19:05.103Z,61.90
2022-09-15T08:21:31.440Z,60.42
2022-09-15T08:23:59.767Z,60.37
2022-09-15T08:26:27.799Z,60.99
2022-09-15T08:28:54.312Z,60.17
2022-09-15T08:31:22.393Z,59.49
2022-09-15T08:33:50.315Z,59.33
2022-09-15T08:36:17.062Z,58.86
2022-09-15T08:38:45.268Z,58.51
2022-09-15T08:41:16.277Z,59.25
2022-09-15T08:43:47.913Z,59.22
2022-09-15T08:46:20.407Z,58.48
2022-09-15T08:48:59.585Z,58.31
2022-09-15T08:51:34.377Z,58.23
2022-09-15T08:54:05.482Z,58.69
2022-09-15T08:56:31.894Z,59.88
2022-09-15T08:58:58.404Z,60.91
2022-09-15T09:01:40.808Z,60.66
2022-09-15T09:04:31.963Z,59.43
2022-09-15T09:07:10.715Z,58.80
2022-09-15T09:09:44.911Z,57.67
2022-09-15T09:12:28.532Z,60.83
2022-09-15T09:15:07.663Z,58.83
2022-09-15T09:17:56.330Z,57.76
2022-09-15T09:20:43.180Z,57.08
2022-09-15T09:23:12.621Z,58.46
2022-09-15T09:25:40.603Z,56.17
2022-09-15T09:28:22.760Z,53.87
2022-09-15T09:30:49.250Z,53.72
2022-09-15T09:33:25.271Z,53.62
2022-09-15T09:35:53.128Z,56.03
2022-09-15T09:38:24.839Z,54.56
2022-09-15T09:40:51.703Z,53.62
2022-09-15T09:43:18.335Z,53.03
2022-09-15T09:45:44.803Z,55.97
2022-09-15T09:48:15.368Z,53.46
2022-09-15T09:50:42.616Z,52.73
2022-09-15T09:53:25.374Z,51.49
2022-09-15T09:55:52.464Z,52.68
2022-09-15T09:58:21.215Z,50.28
2022-09-15T10:00:48.572Z,50.28
2022-09-15T10:03:16.655Z,49.51
2022-09-15T10:05:45.050Z,49.34
2022-09-15T10:08:16.551Z,50.23
2022-09-15T10:10:52.540Z,49.19
2022-09-15T10:13:19.448Z,47.98
2022-09-15T10:15:51.564Z,50.42
2022-09-15T10:18:33.928Z,48.87
2022-09-15T10:21:02.586Z,49.61
2022-09-15T10:23:31.046Z,49.37
2022-09-15T10:26:20.213Z,49.28
2022-09-15T10:29:12.969Z,49.83
2022-09-15T10:31:40.520Z,49.79
2022-09-15T10:34:27.006Z,48.21
2022-09-15T10:36:58.578Z,47.21
2022-09-15T10:39:35.779Z,48.70
2022-09-15T10:42:12.952Z,48.41
2022-09-15T10:44:49.844Z,49.38
2022-09-15T10:47:27.405Z,49.65
2022-09-15T10:50:11.243Z,51.38
2022-09-15T10:52:51.770Z,52.08
2022-09-15T10:55:48.843Z,49.97
2022-09-15T10:58:30.180Z,48.26
2022-09-15T11:01:06.507Z,47.01
2022-09-15T11:04:06.220Z,46.01
2022-09-15T11:06:41.228Z,46.02
2022-09-15T11:09:16.832Z,46.03
2022-09-15T11:11:57.384Z,49.34
2022-09-15T11:14:53.659Z,48.76
2022-09-15T11:17:30.889Z,48.36
2022-09-15T11:20:20.716Z,47.12
2022-09-15T11:22:52.808Z,46.71
2022-09-15T11:25:22.825Z,47.48
2022-09-15T11:27:53.338Z,47.97
2022-09-15T11:30:23.729Z,45.19
2022-09-15T11:32:58.761Z,44.28
2022-09-15T11:35:33.268Z,43.08
2022-09-15T11:38:12.971Z,43.32
2022-09-15T11:40:46.120Z,44.69
2022-09-15T11:43:17.931Z,45.73
2022-09-15T11:45:50.361Z,44.76
2022-09-15T11:48:22.396Z,44.76
2022-09-15T11:50:53.357Z,44.13
2022-09-15T11:53:27.742Z,44.95
2022-09-15T11:56:00.960Z,45.00
2022-09-15T11:58:33.732Z,45.88
2022-09-15T12:01:06.987Z,47.18
2022-09-15T12:03:38.916Z,48.15
2022-09-15T12:06:09.709Z,47.25
2022-09-15T12:08:40.535Z,46.50
2022-09-15T12:11:11.701Z,45.42
2022-09-15T12:13:41.014Z,46.28
2022-09-15T12:16:09.735Z,48.88
2022-09-15T12:18:43.759Z,50.33
2022-09-15T12:21:17.149Z,47.61
2022-09-15T12:23:48.271Z,48.08
2022-09-15T12:26:17.666Z,47.84
2022-09-15T12:28:55.958Z,46.38
2022-09-15T12:31:44.808Z,45.83
2022-09-15T12:34:34.398Z,45.64
2022-09-15T12:37:08.507Z,48.44
2022-09-15T12:39:40.850Z,48.99
2022-09-15T12:42:14.044Z,48.90
2022-09-15T12:44:43.169Z,49.56
2022-09-15T12:47:20.677Z,49.20
2022-09-15T12:49:49.876Z,47.38
2022-09-15T12:52:19.008Z,47.28
2022-09-15T12:54:53.228Z,46.96
2022-09-15T12:57:24.439Z,47.93
2022-09-15T13:00:31.843Z,44.94
2022-09-15T13:03:00.352Z,46.44
2022-09-15T13:05:54.152Z,43.70
2022-09-15T13:08:44.249Z,45.13
2022-09-15T13:11:15.014Z,44.93
2022-09-15T13:13:45.561Z,44.06
2022-09-15T13:16:16.713Z,46.32
2022-09-15T13:18:46.841Z,47.40
2022-09-15T13:21:21.443Z,45.43
2022-09-15T13:23:51.644Z,46.48
2022-09-15T13:26:24.820Z,45.77
2022-09-15T13:28:55.683Z,45.33
2022-09-15T13:31:34.365Z,44.97
2022-09-15T13:40:52.238Z,45.28
2022-09-15T13:43:48.911Z,43.29
2022-09-15T13:46:27.787Z,44.62
2022-09-15T13:49:14.845Z,44.73
2022-09-15T13:51:46.950Z,43.68
2022-09-15T13:54:17.491Z,43.21
2022-09-15T13:56:44.303Z,42.75
2022-09-15T13:59:18.138Z,42.47
2022-09-15T14:01:45.426Z,44.29
2022-09-15T14:04:15.857Z,42.31
2022-09-15T14:06:45.689Z,42.97
2022-09-15T14:09:16.785Z,42.25
2022-09-15T14:11:47.222Z,44.30
2022-09-15T14:14:32.047Z,42.68
2022-09-15T14:17:00.988Z,41.99
2022-09-15T14:19:34.291Z,42.26
2022-09-15T14:22:02.187Z,41.87
2022-09-15T14:24:30.476Z,40.55
2022-09-15T14:27:00.184Z,42.24
2022-09-15T14:29:27.233Z,41.78
2022-09-15T14:31:59.026Z,41.48
2022-09-15T14:34:29.837Z,42.70
2022-09-15T14:37:02.322Z,41.98
2022-09-15T14:39:29.778Z,42.45
2022-09-15T14:41:56.668Z,41.04
2022-09-15T14:47:19.573Z,40.14
2022-09-15T14:49:46.044Z,40.45
2022-09-15T14:52:25.684Z,40.25
2022-09-15T14:54:57.527Z,40.84
2022-09-15T14:57:30.889Z,40.97
2022-09-15T15:00:01.285Z,40.89
2022-09-15T15:02:35.167Z,41.62
2022-09-15T15:05:07.942Z,41.92
2022-09-15T15:07:37.596Z,41.32
2022-09-15T15:10:07.298Z,41.15
2022-09-15T15:12:35.872Z,41.52
2022-09-15T15:15:03.161Z,41.97
2022-09-15T15:17:34.826Z,42.73
2022-09-15T15:20:12.295Z,44.31
2022-09-15T15:22:41.429Z,42.58
2022-09-15T15:25:22.560Z,43.40
2022-09-15T15:27:51.328Z,44.62
2022-09-15T15:30:45.685Z,45.12
2022-09-15T15:33:19.795Z,45.29
2022-09-15T15:35:46.995Z,45.91
2022-09-15T15:38:16.939Z,46.49
2022-09-15T15:40:44.715Z,45.94
2022-09-15T15:43:22.683Z,45.67
2022-09-15T15:45:51.133Z,46.14
2022-09-15T15:48:17.479Z,46.79
2022-09-15T15:50:43.844Z,46.80
2022-09-15T15:53:10.201Z,47.31
2022-09-15T15:55:40.359Z,45.69
2022-09-15T15:58:08.653Z,45.82
2022-09-15T16:00:38.602Z,46.20
2022-09-15T16:03:05.798Z,46.88
2022-09-15T16:05:33.542Z,46.94
2022-09-15T16:08:03.242Z,45.96
2022-09-15T16:10:38.334Z,46.97
2022-09-15T16:13:06.123Z,45.81
2022-09-15T16:15:32.557Z,46.44
2022-09-15T16:17:59.081Z,45.87
2022-09-15T16:20:25.432Z,45.08
2022-09-15T16:22:52.134Z,45.33
2022-09-15T16:25:27.008Z,46.07
2022-09-15T16:27:53.348Z,45.67
2022-09-15T16:30:21.454Z,46.35
2022-09-15T16:32:47.812Z,46.35
2022-09-15T16:35:24.110Z,47.30
2022-09-15T16:37:50.454Z,46.21
2022-09-15T16:40:16.960Z,46.36
2022-09-15T16:42:43.711Z,47.19
2022-09-15T16:45:18.753Z,47.52
2022-09-15T16:47:46.631Z,48.82
2022-09-15T16:50:13.036Z,49.50
2022-09-15T16:52:39.468Z,49.82
2022-09-15T16:55:18.855Z,51.07
2022-09-15T16:57:45.285Z,50.16
2022-09-15T17:00:13.303Z,49.72
2022-09-15T17:02:40.928Z,49.85
2022-09-15T17:05:16.151Z,50.32
2022-09-15T17:07:42.499Z,50.47
2022-09-15T17:10:09.182Z,50.15
2022-09-15T17:12:36.646Z,52.57
2022-09-15T17:15:17.786Z,52.24
2022-09-15T17:17:44.167Z,52.66
2022-09-15T17:20:11.947Z,50.42
2022-09-15T17:22:38.307Z,51.49
2022-09-15T17:25:17.971Z,49.52
2022-09-15T17:27:44.376Z,49.73
2022-09-15T17:30:12.465Z,49.97
2022-09-15T17:32:38.925Z,50.39
2022-09-15T17:35:15.432Z,49.41
2022-09-15T17:37:41.812Z,48.73
2022-09-15T17:40:08.996Z,48.14
2022-09-15T17:42:35.428Z,47.54
2022-09-15T17:45:02.069Z,49.62
2022-09-15T17:47:28.427Z,48.24
2022-09-15T17:49:54.759Z,47.78
2022-09-15T17:52:22.437Z,47.83
2022-09-15T17:54:48.849Z,47.09
2022-09-15T17:57:15.236Z,46.25
2022-09-15T17:59:41.621Z,46.66
2022-09-15T18:02:17.015Z,47.36
2022-09-15T18:04:43.406Z,48.85
2022-09-15T18:07:09.742Z,49.27
2022-09-15T18:09:37.462Z,51.10
2022-09-15T18:12:04.281Z,50.29
2022-09-15T18:14:30.737Z,51.47
2022-09-15T18:16:57.106Z,52.25
2022-09-15T18:19:23.484Z,53.45
2022-09-15T18:21:53.632Z,55.16
2022-09-15T18:24:19.990Z,55.33
2022-09-15T18:26:47.754Z,55.72
2022-09-15T18:29:14.145Z,56.13
2022-09-15T18:31:40.554Z,56.47
2022-09-15T18:34:06.915Z,56.26
2022-09-15T18:36:33.382Z,58.92
2022-09-15T18:38:59.815Z,57.15
2022-09-15T18:41:26.333Z,56.39
2022-09-15T18:43:54.159Z,57.11
2022-09-15T18:46:20.651Z,56.80
2022-09-15T18:48:47.258Z,57.06
2022-09-15T18:51:19.672Z,56.27
2022-09-15T18:53:53.987Z,56.01
2022-09-15T18:56:20.982Z,58.11
2022-09-15T18:58:47.344Z,57.99
2022-09-15T19:01:15.187Z,57.82
2022-09-15T19:03:43.849Z,58.65
2022-09-15T19:06:10.614Z,58.08
2022-09-15T19:08:37.046Z,58.50
2022-09-15T19:11:04.072Z,57.69
2022-09-15T19:13:30.470Z,57.98
2022-09-15T19:16:02.727Z,57.87
2022-09-15T19:18:30.427Z,57.79
2022-09-15T19:21:03.760Z,59.86
2022-09-15T19:23:30.124Z,58.45
2022-09-15T19:25:56.450Z,59.09
2022-09-15T19:28:22.977Z,59.59
2022-09-15T19:30:49.355Z,60.08
2022-09-15T19:33:15.805Z,60.47
2022-09-15T19:35:43.501Z,59.29
2022-09-15T19:38:09.861Z,58.93
2022-09-15T19:40:36.270Z,59.00
2022-09-15T19:43:02.739Z,60.98
2022-09-15T19:45:29.120Z,62.03
2022-09-15T19:47:55.465Z,60.36
2022-09-15T19:50:22.761Z,60.06
2022-09-15T19:52:50.450Z,59.91
2022-09-15T19:55:16.936Z,59.80
2022-09-15T19:57:43.398Z,60.72
2022-09-15T20:00:11.873Z,59.88
2022-09-15T20:02:38.651Z,60.62
2022-09-15T20:05:06.349Z,60.35
2022-09-15T20:07:33.225Z,60.81
2022-09-15T20:10:00.939Z,62.48
2022-09-15T20:12:27.312Z,62.21
2022-09-15T20:14:53.690Z,61.30
2022-09-15T20:17:20.136Z,60.63
2022-09-15T20:19:46.621Z,61.55
2022-09-15T20:22:13.246Z,61.00
2022-09-15T20:24:40.025Z,60.13
2022-09-15T20:27:07.880Z,61.09
2022-09-15T20:29:34.493Z,60.86
2022-09-15T20:32:00.968Z,61.38
2022-09-15T20:34:27.997Z,61.69
2022-09-15T20:36:54.321Z,60.76
2022-09-15T20:39:20.680Z,61.58
2022-09-15T20:41:47.052Z,61.31
2022-09-15T20:44:15.107Z,60.47
2022-09-15T20:46:42.206Z,61.41
2022-09-15T20:49:10.439Z,61.00
2022-09-15T20:51:36.832Z,61.74
2022-09-15T20:54:04.368Z,61.54
2022-09-15T20:56:32.595Z,62.76
2022-09-15T20:59:00.338Z,61.46
2022-09-15T21:01:29.429Z,61.77
2022-09-15T21:03:56.034Z,62.44
2022-09-15T21:06:23.791Z,63.81
2022-09-15T21:08:50.609Z,62.39
2022-09-15T21:11:19.351Z,62.60
2022-09-15T21:13:48.118Z,62.32
2022-09-15T21:16:16.184Z,61.85
2022-09-15T21:18:44.935Z,62.15
2022-09-15T21:21:14.356Z,62.71
2022-09-15T21:23:42.860Z,62.71
2022-09-15T21:26:11.354Z,63.86
2022-09-15T21:28:37.879Z,63.41
2022-09-15T21:31:06.046Z,65.17
2022-09-15T21:33:32.491Z,64.68
2022-09-15T21:36:04.847Z,64.22
2022-09-15T21:38:31.189Z,62.99
2022-09-15T21:40:57.694Z,62.91
2022-09-15T21:43:24.239Z,62.34
2022-09-15T21:45:54.675Z,63.67
2022-09-15T21:48:21.127Z,63.99
2022-09-15T21:50:49.804Z,64.98
2022-09-15T21:53:17.724Z,63.35
2022-09-15T21:55:44.060Z,63.59
2022-09-15T21:58:10.395Z,63.97
2022-09-15T22:00:36.811Z,62.88
2022-09-15T22:03:03.229Z,62.85
2022-09-15T22:05:29.572Z,63.90
2022-09-15T22:07:55.920Z,65.46
2022-09-15T22:10:23.624Z,64.85
2022-09-15T22:12:51.667Z,64.76
2022-09-15T22:15:18.530Z,63.72
2022-09-15T22:17:44.912Z,64.66
2022-09-15T22:20:11.305Z,65.62
2022-09-15T22:22:37.640Z,64.50
2022-09-15T22:25:04.523Z,63.94
2022-09-15T22:27:32.199Z,67.72
2022-09-15T22:29:58.552Z,65.14
2022-09-15T22:32:24.999Z,65.22
2022-09-15T22:34:51.361Z,64.06
2022-09-15T22:37:17.711Z,64.27
2022-09-15T22:39:58.387Z,64.76
2022-09-15T22:42:25.788Z,64.45
2022-09-15T22:44:53.750Z,63.30
2022-09-15T22:47:20.087Z,64.01
2022-09-15T22:49:46.465Z,64.04
2022-09-15T22:52:12.823Z,67.00
2022-09-15T22:54:39.191Z,64.47
2022-09-15T22:57:05.599Z,65.13
2022-09-15T22:59:31.951Z,65.56
2022-09-15T23:01:59.703Z,63.96
2022-09-15T23:04:26.340Z,64.16
2022-09-15T23:06:52.884Z,65.10
2022-09-15T23:09:19.232Z,64.76
2022-09-15T23:11:45.575Z,63.67
2022-09-15T23:14:13.843Z,63.83
2022-09-15T23:16:40.433Z,63.32
2022-09-15T23:19:08.232Z,62.76
2022-09-15T23:21:34.616Z,63.21
2022-09-15T23:24:01.377Z,64.28
2022-09-15T23:26:27.792Z,64.19
2022-09-15T23:28:54.731Z,65.58
2022-09-15T23:31:21.239Z,63.99
2022-09-15T23:33:47.719Z,63.99
2022-09-15T23:36:17.595Z,63.69
2022-09-15T23:38:45.319Z,63.51
2022-09-15T23:41:13.376Z,64.11
2022-09-15T23:43:39.820Z,64.68
2022-09-15T23:46:06.392Z,64.50
2022-09-15T23:48:32.888Z,64.71
2022-09-15T23:51:00.010Z,64.68
2022-09-15T23:53:28.133Z,65.11
2022-09-15T23:55:54.581Z,65.14
2022-09-15T23:58:20.996Z,65.94
